Time;durP1;ratioP1;P1;durP2;ratioP2;P2;SDS_P1;SDS_P2;PMS_P1;PMS_P2;Temp;Humidity;BMP_temperature;BMP_pressure;BME280_temperature;BME280_humidity;BME280_pressure;Samples;Min_cycle;Max_cycle;Signal;HPM_P1;HPM_P2
2023/10/28 00:01:13;;;;;;;10.05;3.80;;;12.40;99.90;;;;;;4964577;28;20134;-77
2023/10/28 00:03:40;;;;;;;11.95;3.63;;;12.40;99.90;;;;;;4967430;28;20023;-77
2023/10/28 00:06:07;;;;;;;9.20;3.00;;;12.30;99.90;;;;;;4966380;28;20030;-77
2023/10/28 00:08:33;;;;;;;21.10;3.50;;;12.40;99.90;;;;;;4964216;28;20126;-77
2023/10/28 00:11:00;;;;;;;11.25;3.10;;;12.40;99.90;;;;;;4963633;28;20368;-77
2023/10/28 00:13:26;;;;;;;7.70;2.40;;;12.50;99.90;;;;;;4960969;28;20011;-76
2023/10/28 00:15:52;;;;;;;7.03;2.35;;;12.50;99.90;;;;;;4965814;28;20027;-77
2023/10/28 00:18:17;;;;;;;8.80;2.95;;;12.60;99.90;;;;;;4962501;28;20129;-77
2023/10/28 00:20:45;;;;;;;6.57;2.28;;;12.60;99.90;;;;;;4966499;28;20045;-77
2023/10/28 00:23:11;;;;;;;8.02;2.13;;;12.60;99.90;;;;;;4966729;28;20011;-77
2023/10/28 00:25:37;;;;;;;5.15;2.10;;;12.50;99.90;;;;;;4960859;28;20073;-76
2023/10/28 00:28:03;;;;;;;3.97;1.80;;;12.50;99.90;;;;;;4965541;28;20534;-76
2023/10/28 00:30:29;;;;;;;8.52;2.30;;;12.60;99.90;;;;;;4965748;28;20372;-77
2023/10/28 00:32:58;;;;;;;6.22;2.45;;;12.60;99.90;;;;;;4963166;28;20086;-76
2023/10/28 00:35:25;;;;;;;5.72;1.80;;;12.70;99.90;;;;;;4961317;28;20526;-77
2023/10/28 00:37:51;;;;;;;5.35;1.92;;;12.60;99.90;;;;;;4970016;28;20033;-77
2023/10/28 00:40:17;;;;;;;6.25;2.20;;;12.60;99.90;;;;;;4971435;28;20402;-77
2023/10/28 00:42:45;;;;;;;3.30;1.60;;;12.60;99.90;;;;;;4978930;28;20015;-77
2023/10/28 00:45:13;;;;;;;5.50;1.25;;;12.60;99.90;;;;;;4988636;28;20031;-77
2023/10/28 00:47:44;;;;;;;4.97;1.50;;;12.60;99.90;;;;;;4983403;28;20102;-76
2023/10/28 00:50:12;;;;;;;2.35;1.35;;;12.60;99.90;;;;;;4999423;28;20386;-77
2023/10/28 00:52:48;;;;;;;5.45;1.50;;;12.50;99.90;;;;;;4973811;28;20062;-77
2023/10/28 00:55:15;;;;;;;5.63;1.90;;;12.50;99.90;;;;;;4981266;28;20059;-77
2023/10/28 00:57:42;;;;;;;5.75;1.42;;;12.50;99.90;;;;;;4967575;28;20125;-77
2023/10/28 01:00:10;;;;;;;4.50;1.20;;;12.60;99.90;;;;;;4975153;28;20126;-77
2023/10/28 01:02:39;;;;;;;5.78;1.55;;;12.60;99.90;;;;;;4980960;28;20015;-77
2023/10/28 01:05:11;;;;;;;2.67;1.00;;;12.60;99.90;;;;;;4981974;28;20056;-77
2023/10/28 01:07:45;;;;;;;5.78;1.25;;;12.60;99.90;;;;;;4973358;28;20022;-77
2023/10/28 01:10:12;;;;;;;2.00;0.88;;;12.60;99.90;;;;;;4975655;28;20065;-77
2023/10/28 01:12:38;;;;;;;1.50;0.70;;;12.50;99.90;;;;;;4975359;28;20026;-77
2023/10/28 01:15:05;;;;;;;1.48;0.88;;;12.50;99.90;;;;;;4976657;28;20031;-77
2023/10/28 01:17:31;;;;;;;1.10;0.73;;;12.40;99.90;;;;;;4972038;28;20438;-77
2023/10/28 01:19:57;;;;;;;1.45;0.82;;;12.50;99.90;;;;;;4976818;28;20018;-77
2023/10/28 01:22:26;;;;;;;2.08;0.90;;;12.50;99.90;;;;;;4972508;28;20023;-77
2023/10/28 01:24:52;;;;;;;3.35;0.90;;;12.50;99.90;;;;;;4971756;28;20505;-77
2023/10/28 01:27:19;;;;;;;1.80;0.80;;;12.50;99.90;;;;;;4972790;28;20101;-77
2023/10/28 01:29:46;;;;;;;3.50;1.13;;;12.50;99.90;;;;;;4978718;28;20026;-77
2023/10/28 01:32:12;;;;;;;3.40;0.73;;;12.50;99.90;;;;;;4973058;28;20031;-77
2023/10/28 01:34:50;;;;;;;2.97;0.68;;;12.50;99.90;;;;;;4973823;28;20316;-77
2023/10/28 01:37:16;;;;;;;3.10;0.90;;;12.50;99.90;;;;;;4937990;28;20031;-77
2023/10/28 01:39:51;;;;;;;3.40;1.00;;;12.50;99.90;;;;;;4951964;28;20034;-77
2023/10/28 01:42:18;;;;;;;3.72;1.00;;;12.40;99.90;;;;;;4959117;28;20050;-76
2023/10/28 01:44:45;;;;;;;3.15;0.95;;;12.50;99.90;;;;;;4988378;28;20099;-77
2023/10/28 01:47:11;;;;;;;3.28;1.17;;;12.50;99.90;;;;;;4959434;28;20023;-77
2023/10/28 01:49:38;;;;;;;5.45;1.23;;;12.50;99.90;;;;;;4955888;28;20019;-77
2023/10/28 01:52:07;;;;;;;2.10;0.80;;;12.50;99.90;;;;;;4957703;28;20452;-77
2023/10/28 01:54:34;;;;;;;1.25;0.95;;;12.40;99.90;;;;;;4961878;28;20018;-77
2023/10/28 01:57:07;;;;;;;1.95;1.00;;;12.40;99.90;;;;;;4951021;28;20019;-78
2023/10/28 01:59:34;;;;;;;2.58;1.00;;;12.50;99.90;;;;;;4974944;28;20050;-77
2023/10/28 02:02:03;;;;;;;2.78;0.80;;;12.50;99.90;;;;;;4957940;28;20023;-77
2023/10/28 02:04:33;;;;;;;5.82;1.00;;;12.40;99.90;;;;;;4961630;28;20467;-77
2023/10/28 02:06:59;;;;;;;4.38;0.98;;;12.40;99.90;;;;;;4954125;28;20055;-77
2023/10/28 02:09:26;;;;;;;3.92;1.00;;;12.40;99.90;;;;;;4968870;28;20023;-77
2023/10/28 02:11:53;;;;;;;3.85;0.70;;;12.40;99.90;;;;;;4960613;28;20085;-77
2023/10/28 02:14:20;;;;;;;4.80;1.25;;;12.40;99.90;;;;;;4960524;28;20023;-77
2023/10/28 02:16:45;;;;;;;3.42;1.20;;;12.40;99.90;;;;;;4953925;28;20471;-77
2023/10/28 02:19:11;;;;;;;6.55;1.40;;;12.40;99.90;;;;;;4959502;28;20034;-77
2023/10/28 02:21:37;;;;;;;8.35;1.58;;;12.40;99.90;;;;;;4957265;28;20030;-77
2023/10/28 02:24:06;;;;;;;2.17;1.25;;;12.40;99.90;;;;;;4955279;28;20027;-77
2023/10/28 02:26:34;;;;;;;2.05;1.38;;;12.40;99.90;;;;;;4957906;28;20019;-77
2023/10/28 02:29:01;;;;;;;3.80;1.63;;;12.40;99.90;;;;;;4956600;28;20496;-77
2023/10/28 02:31:27;;;;;;;4.82;1.38;;;12.30;99.90;;;;;;4957596;28;20033;-77
2023/10/28 02:33:53;;;;;;;2.13;1.25;;;12.30;99.90;;;;;;4961170;28;20474;-77
2023/10/28 02:36:19;;;;;;;6.22;1.58;;;12.30;99.90;;;;;;4975321;28;20073;-77
2023/10/28 02:38:44;;;;;;;5.57;1.80;;;12.30;99.90;;;;;;4954516;28;20035;-77
2023/10/28 02:41:10;;;;;;;2.60;1.40;;;12.40;99.90;;;;;;4958297;28;20038;-77
2023/10/28 02:43:36;;;;;;;2.55;1.13;;;12.30;99.90;;;;;;4959456;28;20070;-77
2023/10/28 02:46:05;;;;;;;6.07;1.50;;;12.20;99.90;;;;;;4959390;28;20031;-77
2023/10/28 02:48:31;;;;;;;9.38;5.10;;;12.30;99.90;;;;;;4957437;28;20038;-78
2023/10/28 02:51:06;;;;;;;4.30;1.70;;;12.30;99.90;;;;;;4952846;28;20087;-77
2023/10/28 02:53:33;;;;;;;3.10;1.33;;;12.30;99.90;;;;;;4954973;28;20031;-77
2023/10/28 02:56:03;;;;;;;4.72;1.52;;;12.30;99.90;;;;;;4956321;28;20081;-77
2023/10/28 02:58:29;;;;;;;3.38;1.55;;;12.30;99.90;;;;;;4956533;28;20027;-77
2023/10/28 03:00:57;;;;;;;4.95;1.70;;;12.10;99.90;;;;;;4955844;28;20019;-77
2023/10/28 03:03:26;;;;;;;2.85;1.30;;;12.10;99.90;;;;;;4955600;28;20413;-77
2023/10/28 03:05:51;;;;;;;3.22;1.50;;;12.10;99.90;;;;;;4957047;28;20073;-77
2023/10/28 03:08:19;;;;;;;6.75;1.90;;;12.10;99.90;;;;;;4987508;28;20426;-77
2023/10/28 03:10:44;;;;;;;5.20;2.03;;;12.10;99.90;;;;;;4962608;28;20161;-77
2023/10/28 03:13:10;;;;;;;2.72;2.13;;;12.10;99.90;;;;;;4963893;28;20320;-77
2023/10/28 03:15:36;;;;;;;5.57;2.28;;;12.10;99.90;;;;;;4964416;28;20066;-77
2023/10/28 03:18:02;;;;;;;3.85;2.20;;;12.20;99.90;;;;;;4985593;28;20029;-77
2023/10/28 03:20:28;;;;;;;4.95;1.88;;;12.20;99.90;;;;;;4969460;28;20031;-77
2023/10/28 03:22:53;;;;;;;6.82;2.97;;;12.20;99.90;;;;;;4969543;28;20442;-77
2023/10/28 03:25:19;;;;;;;6.05;2.28;;;12.20;99.90;;;;;;4965884;28;20022;-77
2023/10/28 03:27:45;;;;;;;7.38;4.68;;;12.20;99.90;;;;;;4969574;28;20015;-78
2023/10/28 03:30:12;;;;;;;7.43;3.40;;;12.20;99.90;;;;;;4966786;28;20038;-77
2023/10/28 03:32:37;;;;;;;4.70;2.90;;;12.20;99.90;;;;;;4975827;28;20047;-77
2023/10/28 03:35:03;;;;;;;4.60;2.10;;;12.20;99.90;;;;;;4968031;28;20085;-77
2023/10/28 03:37:31;;;;;;;4.55;2.15;;;12.10;99.90;;;;;;4969480;28;20026;-77
2023/10/28 03:39:57;;;;;;;3.67;2.17;;;12.20;99.90;;;;;;4979924;28;20035;-77
2023/10/28 03:42:23;;;;;;;5.40;2.38;;;12.20;99.90;;;;;;4959862;28;20027;-77
2023/10/28 03:44:48;;;;;;;4.13;2.20;;;12.20;99.90;;;;;;4970709;28;20102;-77
2023/10/28 03:47:14;;;;;;;4.63;2.28;;;12.10;99.90;;;;;;4969996;28;20033;-77
2023/10/28 03:49:40;;;;;;;4.25;2.20;;;12.10;99.90;;;;;;4970833;28;20031;-77
2023/10/28 03:52:06;;;;;;;7.80;2.28;;;12.20;99.90;;;;;;4965660;28;20519;-77
2023/10/28 03:54:32;;;;;;;6.97;2.10;;;12.30;99.90;;;;;;4967233;28;20055;-77
2023/10/28 03:56:59;;;;;;;3.58;2.22;;;12.30;99.90;;;;;;4966735;28;20514;-77
2023/10/28 03:59:24;;;;;;;6.80;2.78;;;12.30;99.90;;;;;;4976353;28;20023;-77
2023/10/28 04:01:50;;;;;;;6.30;2.35;;;12.30;99.90;;;;;;4965037;28;20197;-77
2023/10/28 04:04:16;;;;;;;8.82;2.30;;;12.20;99.90;;;;;;4970360;28;20450;-77
2023/10/28 04:06:42;;;;;;;3.47;2.10;;;12.30;99.90;;;;;;4974360;28;20023;-77
2023/10/28 04:09:08;;;;;;;8.13;2.00;;;12.30;99.90;;;;;;4973937;28;20399;-77
2023/10/28 04:11:34;;;;;;;9.50;2.28;;;12.30;99.90;;;;;;4968367;28;20023;-77
2023/10/28 04:13:59;;;;;;;7.93;2.20;;;12.30;99.90;;;;;;4962713;28;20086;-77
2023/10/28 04:16:25;;;;;;;8.90;2.50;;;12.30;99.90;;;;;;4973610;28;20661;-77
2023/10/28 04:18:52;;;;;;;7.78;2.83;;;12.20;99.90;;;;;;4978616;28;20038;-77
2023/10/28 04:21:18;;;;;;;6.55;2.50;;;12.10;99.90;;;;;;4980239;28;20098;-77
2023/10/28 04:23:43;;;;;;;5.70;2.80;;;12.20;99.90;;;;;;4974604;28;20130;-76
2023/10/28 04:26:09;;;;;;;6.90;2.40;;;12.20;99.90;;;;;;4977081;28;20059;-76
2023/10/28 04:28:36;;;;;;;6.07;2.40;;;12.30;99.90;;;;;;4969861;28;20114;-76
2023/10/28 04:31:02;;;;;;;5.88;2.28;;;12.20;99.90;;;;;;4975577;28;20026;-76
2023/10/28 04:33:28;;;;;;;9.43;2.58;;;12.20;99.90;;;;;;4975868;28;20563;-77
2023/10/28 04:35:54;;;;;;;4.35;2.28;;;12.20;99.90;;;;;;4971678;28;20055;-77
2023/10/28 04:38:22;;;;;;;8.25;2.50;;;12.20;99.90;;;;;;4974302;28;20023;-77
2023/10/28 04:40:51;;;;;;;6.00;2.47;;;12.20;99.90;;;;;;4974199;28;20098;-77
2023/10/28 04:43:19;;;;;;;8.90;2.58;;;12.20;99.90;;;;;;4976184;28;20034;-77
2023/10/28 04:45:45;;;;;;;9.77;2.42;;;12.20;99.90;;;;;;4976461;28;20386;-77
2023/10/28 04:48:13;;;;;;;9.52;2.50;;;12.10;99.90;;;;;;4974606;28;20014;-77
2023/10/28 04:50:41;;;;;;;11.65;2.67;;;12.20;99.90;;;;;;4975883;28;20475;-76
2023/10/28 04:53:06;;;;;;;6.20;2.72;;;12.30;99.90;;;;;;4974572;28;20055;-77
2023/10/28 04:55:32;;;;;;;8.40;2.80;;;12.30;99.90;;;;;;4972681;28;20062;-76
2023/10/28 04:57:58;;;;;;;4.05;2.05;;;12.20;99.90;;;;;;4977413;28;20022;-76
2023/10/28 05:00:23;;;;;;;6.38;2.85;;;12.20;99.90;;;;;;4973510;28;20039;-77
2023/10/28 05:02:49;;;;;;;10.00;2.92;;;12.20;99.90;;;;;;4986921;28;20050;-77
2023/10/28 05:05:15;;;;;;;8.10;2.80;;;12.20;99.90;;;;;;4973672;28;20050;-76
2023/10/28 05:07:42;;;;;;;7.65;2.63;;;12.20;99.90;;;;;;4975812;28;20031;-76
2023/10/28 05:10:09;;;;;;;5.82;2.90;;;12.20;99.90;;;;;;4972597;28;20095;-76
2023/10/28 05:12:38;;;;;;;10.10;2.80;;;12.20;99.90;;;;;;4973912;28;20055;-76
2023/10/28 05:15:08;;;;;;;9.35;3.90;;;12.30;99.90;;;;;;4964300;28;20031;-77
2023/10/28 05:17:36;;;;;;;6.53;3.20;;;12.30;99.90;;;;;;4988526;28;20034;-76
2023/10/28 05:20:09;;;;;;;8.43;3.08;;;12.30;99.90;;;;;;4969495;28;20035;-77
2023/10/28 05:22:38;;;;;;;5.57;2.97;;;12.20;99.90;;;;;;4969760;28;20057;-75
2023/10/28 05:25:07;;;;;;;6.38;2.67;;;12.30;99.90;;;;;;4968676;28;20562;-76
2023/10/28 05:27:33;;;;;;;7.30;2.95;;;12.30;99.90;;;;;;4973742;28;20058;-76
2023/10/28 05:29:59;;;;;;;6.30;2.80;;;12.30;99.90;;;;;;4967535;28;20497;-77
2023/10/28 05:32:29;;;;;;;9.07;3.05;;;12.20;99.90;;;;;;4968167;28;20026;-76
2023/10/28 05:34:56;;;;;;;6.10;2.70;;;12.20;99.90;;;;;;4969087;28;20027;-76
2023/10/28 05:37:22;;;;;;;7.03;2.35;;;12.20;99.90;;;;;;4969587;28;20035;-77
2023/10/28 05:39:48;;;;;;;7.68;2.97;;;12.30;99.90;;;;;;4973091;28;20019;-76
2023/10/28 05:42:16;;;;;;;7.70;3.35;;;12.20;99.90;;;;;;4968313;28;20030;-77
2023/10/28 05:44:42;;;;;;;8.13;3.30;;;12.30;99.90;;;;;;4969713;28;20123;-76
2023/10/28 05:47:08;;;;;;;5.22;3.25;;;12.30;99.90;;;;;;4972286;28;20559;-76
2023/10/28 05:49:34;;;;;;;4.70;2.72;;;12.30;99.90;;;;;;4974336;28;20027;-76
2023/10/28 05:52:00;;;;;;;6.07;2.90;;;12.30;99.90;;;;;;4974746;28;20479;-76
2023/10/28 05:54:26;;;;;;;4.18;2.40;;;12.40;99.90;;;;;;4972095;28;20038;-77
2023/10/28 05:56:52;;;;;;;8.85;2.30;;;12.30;99.90;;;;;;4972597;28;20043;-77
2023/10/28 05:59:18;;;;;;;2.97;2.05;;;12.40;99.90;;;;;;4973078;28;20529;-77
2023/10/28 06:01:43;;;;;;;6.70;2.70;;;12.50;99.90;;;;;;4974882;28;20483;-77
2023/10/28 06:04:09;;;;;;;5.57;2.20;;;12.30;99.90;;;;;;4986635;28;20027;-77
2023/10/28 06:06:35;;;;;;;4.90;1.80;;;12.30;99.90;;;;;;4963618;28;20193;-77
2023/10/28 06:09:01;;;;;;;5.13;2.17;;;12.40;99.90;;;;;;4972726;28;20459;-77
2023/10/28 06:11:27;;;;;;;7.03;2.28;;;12.40;99.90;;;;;;4992216;28;20058;-77
2023/10/28 06:13:53;;;;;;;8.30;2.38;;;12.40;99.90;;;;;;4971157;28;20235;-77
2023/10/28 06:16:19;;;;;;;6.30;2.65;;;12.50;99.90;;;;;;4973118;28;20019;-77
2023/10/28 06:18:45;;;;;;;4.50;2.45;;;12.50;99.90;;;;;;4976684;28;20034;-77
2023/10/28 06:21:11;;;;;;;6.00;2.47;;;12.50;99.90;;;;;;4974468;28;20399;-77
2023/10/28 06:23:40;;;;;;;9.82;2.17;;;12.50;99.90;;;;;;4971255;28;20026;-76
2023/10/28 06:26:10;;;;;;;6.57;2.28;;;12.50;99.90;;;;;;4969950;28;20387;-77
2023/10/28 06:28:37;;;;;;;8.93;2.50;;;12.40;99.90;;;;;;4966480;28;20046;-77
2023/10/28 06:31:03;;;;;;;5.78;1.75;;;12.50;99.90;;;;;;4970916;28;20022;-76
2023/10/28 06:33:29;;;;;;;4.45;1.67;;;12.50;99.90;;;;;;4969603;28;20118;-77
2023/10/28 06:35:55;;;;;;;7.80;2.03;;;12.50;99.90;;;;;;4972925;28;20058;-76
2023/10/28 06:38:21;;;;;;;8.38;2.30;;;12.40;99.90;;;;;;4971415;28;20066;-76
2023/10/28 06:40:50;;;;;;;6.97;1.95;;;12.40;99.90;;;;;;4968970;28;20023;-77
2023/10/28 06:43:15;;;;;;;7.47;2.17;;;12.40;99.90;;;;;;4973452;28;20029;-76
2023/10/28 06:45:41;;;;;;;5.93;2.08;;;12.50;99.90;;;;;;4984333;28;20031;-77
2023/10/28 06:48:07;;;;;;;8.30;2.00;;;12.50;99.90;;;;;;4986647;28;20038;-76
2023/10/28 06:50:33;;;;;;;5.63;1.88;;;12.40;99.90;;;;;;4974725;28;20066;-77
2023/10/28 06:53:02;;;;;;;10.50;2.17;;;12.50;99.90;;;;;;4973705;28;20065;-77
2023/10/28 06:55:27;;;;;;;2.65;1.67;;;12.40;99.90;;;;;;4966878;28;20027;-76
2023/10/28 06:57:54;;;;;;;8.88;2.35;;;12.50;99.90;;;;;;4971465;28;20038;-76
2023/10/28 07:00:24;;;;;;;7.35;1.95;;;12.50;99.90;;;;;;4969060;28;20473;-76
2023/10/28 07:02:49;;;;;;;6.32;1.90;;;12.50;99.90;;;;;;4970229;28;20058;-77
2023/10/28 07:05:15;;;;;;;4.72;1.75;;;12.50;99.90;;;;;;4970939;28;20026;-76
2023/10/28 07:07:41;;;;;;;8.10;1.85;;;12.70;99.90;;;;;;4977598;28;20037;-77
2023/10/28 07:10:07;;;;;;;8.52;2.50;;;12.70;99.90;;;;;;4971350;28;20034;-77
2023/10/28 07:12:33;;;;;;;6.28;1.95;;;12.50;99.90;;;;;;4972519;28;20390;-76
2023/10/28 07:14:59;;;;;;;7.38;1.88;;;12.50;99.90;;;;;;4969361;28;20037;-76
2023/10/28 07:17:26;;;;;;;6.60;1.90;;;12.60;99.90;;;;;;4972200;28;20075;-76
2023/10/28 07:19:53;;;;;;;6.63;1.75;;;12.60;99.90;;;;;;4971536;28;20031;-77
2023/10/28 07:22:20;;;;;;;7.90;1.85;;;12.60;99.90;;;;;;4979778;28;20026;-76
2023/10/28 07:24:49;;;;;;;5.95;1.75;;;12.50;99.90;;;;;;4966741;28;20030;-76
2023/10/28 07:27:18;;;;;;;6.28;1.70;;;12.50;99.90;;;;;;4970746;28;20649;-77
2023/10/28 07:29:44;;;;;;;11.40;2.25;;;12.70;99.90;;;;;;4970457;28;20122;-76
2023/10/28 07:32:10;;;;;;;3.50;1.70;;;12.60;99.90;;;;;;4969271;28;20030;-76
2023/10/28 07:34:36;;;;;;;7.40;2.00;;;12.60;99.90;;;;;;4972307;28;20019;-77
2023/10/28 07:37:04;;;;;;;8.30;2.50;;;12.60;99.90;;;;;;4973974;28;20097;-76
2023/10/28 07:39:31;;;;;;;5.72;1.73;;;12.60;99.90;;;;;;4970152;28;20055;-76
2023/10/28 07:41:57;;;;;;;7.15;2.53;;;12.60;99.90;;;;;;4972549;28;20468;-76
2023/10/28 07:44:23;;;;;;;5.75;1.70;;;12.70;99.90;;;;;;4970267;28;20033;-76
2023/10/28 07:46:48;;;;;;;5.65;1.92;;;12.70;99.90;;;;;;4967382;28;20027;-76
2023/10/28 07:49:14;;;;;;;4.53;2.05;;;12.70;99.90;;;;;;4972466;28;20097;-76
2023/10/28 07:51:40;;;;;;;7.68;2.10;;;12.80;99.90;;;;;;4967366;28;20455;-77
2023/10/28 07:54:07;;;;;;;8.02;2.25;;;12.70;99.90;;;;;;4975356;28;20118;-76
2023/10/28 07:56:32;;;;;;;4.10;1.90;;;12.80;99.90;;;;;;4965001;28;20031;-77
2023/10/28 07:59:00;;;;;;;4.07;1.80;;;12.80;99.90;;;;;;4973472;28;20031;-77
2023/10/28 08:01:32;;;;;;;7.30;2.08;;;12.80;99.90;;;;;;4975549;28;20027;-76
2023/10/28 08:03:58;;;;;;;11.77;2.65;;;12.80;99.90;;;;;;4985962;28;20097;-77
2023/10/28 08:06:24;;;;;;;7.85;2.08;;;12.90;99.90;;;;;;4972869;28;20030;-76
2023/10/28 08:08:54;;;;;;;5.40;2.00;;;12.90;99.90;;;;;;4971470;28;20031;-76
2023/10/28 08:11:24;;;;;;;9.52;2.80;;;13.00;99.90;;;;;;4972923;28;20033;-76
2023/10/28 08:13:52;;;;;;;6.68;1.92;;;13.00;99.90;;;;;;4965020;28;20041;-76
2023/10/28 08:16:20;;;;;;;7.88;2.30;;;13.00;99.90;;;;;;4976345;28;20019;-76
2023/10/28 08:18:47;;;;;;;10.15;2.10;;;13.00;99.90;;;;;;4972216;28;20502;-77
2023/10/28 08:21:14;;;;;;;11.13;2.60;;;13.10;99.90;;;;;;4975183;28;20027;-76
2023/10/28 08:23:40;;;;;;;7.13;2.10;;;13.10;99.90;;;;;;4975719;28;20490;-76
2023/10/28 08:26:11;;;;;;;8.32;1.98;;;13.10;99.90;;;;;;4963955;28;20138;-77
2023/10/28 08:28:37;;;;;;;7.40;2.30;;;13.20;99.90;;;;;;4977809;28;20011;-77
2023/10/28 08:31:10;;;;;;;9.35;2.53;;;13.20;99.90;;;;;;4971671;28;20039;-76
2023/10/28 08:33:36;;;;;;;;;;;13.30;99.90;;;;;;4984487;28;20019;-77
2023/10/28 08:36:03;;;;;;;6.70;2.08;;;13.30;99.90;;;;;;4973724;28;20318;-77
2023/10/28 08:38:29;;;;;;;5.22;2.00;;;13.40;99.90;;;;;;4971996;28;20042;-76
2023/10/28 08:41:01;;;;;;;6.65;1.80;;;13.30;99.90;;;;;;4976354;28;20030;-76
2023/10/28 08:43:37;;;;;;;6.47;1.80;;;13.40;99.90;;;;;;4968309;28;20077;-76
2023/10/28 08:46:04;;;;;;;5.25;2.00;;;13.40;99.90;;;;;;4969267;28;20160;-76
2023/10/28 08:48:32;;;;;;;9.98;2.28;;;13.40;99.90;;;;;;4968335;28;20105;-76
2023/10/28 08:51:00;;;;;;;6.53;2.35;;;13.50;99.90;;;;;;4970162;28;20538;-76
2023/10/28 08:53:27;;;;;;;10.30;2.05;;;13.50;99.90;;;;;;4983455;28;20680;-76
2023/10/28 08:55:56;;;;;;;9.20;2.05;;;13.50;99.90;;;;;;4973287;28;20030;-76
2023/10/28 08:58:22;;;;;;;6.68;1.73;;;13.60;99.90;;;;;;4969719;28;20065;-76
2023/10/28 09:00:50;;;;;;;6.43;1.80;;;13.60;99.90;;;;;;4972667;28;20031;-76
2023/10/28 09:03:20;;;;;;;5.13;1.52;;;13.70;99.90;;;;;;4972418;28;20034;-76
2023/10/28 09:05:48;;;;;;;7.72;1.73;;;13.80;99.90;;;;;;4972262;28;20078;-76
2023/10/28 09:08:14;;;;;;;5.70;1.60;;;13.80;99.90;;;;;;4974788;28;20394;-76
2023/10/28 09:10:45;;;;;;;12.30;1.80;;;13.80;99.90;;;;;;4970500;28;20089;-76
2023/10/28 09:13:15;;;;;;;9.25;2.33;;;13.80;99.90;;;;;;4987820;28;20023;-76
2023/10/28 09:15:41;;;;;;;7.47;2.00;;;13.90;99.90;;;;;;4969862;28;20787;-75
2023/10/28 09:18:08;;;;;;;12.32;1.95;;;13.90;99.90;;;;;;4975016;28;20035;-76
2023/10/28 09:20:37;;;;;;;7.28;2.08;;;13.90;99.90;;;;;;5000656;28;20057;-75
2023/10/28 09:23:03;;;;;;;7.82;1.65;;;13.90;99.90;;;;;;4974135;28;20118;-75
2023/10/28 09:25:30;;;;;;;6.80;2.13;;;13.90;99.90;;;;;;4968787;28;20487;-76
2023/10/28 09:27:56;;;;;;;6.97;1.50;;;13.90;99.90;;;;;;4964964;28;20033;-76
2023/10/28 09:30:21;;;;;;;8.02;1.80;;;13.90;99.90;;;;;;4969887;28;20026;-76
2023/10/28 09:32:47;;;;;;;9.43;1.88;;;14.00;99.90;;;;;;4971422;28;20023;-76
2023/10/28 09:35:13;;;;;;;8.00;1.80;;;14.00;99.90;;;;;;4969604;28;20035;-80
2023/10/28 09:37:40;;;;;;;9.20;1.98;;;14.10;99.90;;;;;;4971493;28;20475;-76
2023/10/28 09:40:08;;;;;;;7.57;2.03;;;14.10;99.90;;;;;;4971330;28;20031;-76
2023/10/28 09:42:36;;;;;;;7.30;2.00;;;14.10;99.90;;;;;;4973452;28;20510;-76
2023/10/28 09:45:05;;;;;;;8.40;2.00;;;14.10;99.90;;;;;;4967361;28;20034;-76
2023/10/28 09:47:38;;;;;;;9.32;1.85;;;14.10;99.90;;;;;;4969000;28;20054;-77
2023/10/28 09:53:09;;;;;;;10.88;2.30;;;14.20;99.90;;;;;;4965731;28;19985;-77
2023/10/28 09:55:37;;;;;;;12.20;2.42;;;14.30;99.90;;;;;;4965574;28;20035;-76
2023/10/28 09:58:11;;;;;;;7.50;1.95;;;14.30;99.90;;;;;;4972082;28;20054;-76
2023/10/28 10:00:37;;;;;;;6.15;1.88;;;14.20;99.90;;;;;;4972646;28;20542;-76
2023/10/28 10:03:34;;;;;;;9.40;1.92;;;14.30;99.90;;;;;;4971767;28;20402;-77
2023/10/28 10:06:00;;;;;;;8.65;2.28;;;14.30;99.90;;;;;;4971662;28;20483;-76
2023/10/28 10:08:26;;;;;;;13.43;2.88;;;14.30;99.90;;;;;;4968740;28;20053;-76
2023/10/28 10:10:55;;;;;;;7.68;1.70;;;14.40;99.90;;;;;;4969755;28;20019;-76
2023/10/28 10:13:22;;;;;;;6.80;2.05;;;14.50;99.90;;;;;;4972283;28;20435;-76
2023/10/28 10:16:14;;;;;;;7.35;1.65;;;14.40;99.90;;;;;;4972776;28;20506;-76
2023/10/28 10:18:45;;;;;;;6.53;1.70;;;14.60;99.90;;;;;;4985019;28;20026;-77
2023/10/28 10:21:14;;;;;;;7.22;1.77;;;14.80;99.90;;;;;;4969585;28;20030;-76
2023/10/28 10:23:42;;;;;;;10.15;2.40;;;14.80;99.90;;;;;;4971670;28;20029;-76
2023/10/28 10:26:18;;;;;;;7.47;1.85;;;15.00;99.90;;;;;;4968332;28;20033;-77
2023/10/28 10:28:46;;;;;;;11.50;2.38;;;15.10;99.90;;;;;;4972570;28;20102;-76
2023/10/28 10:31:12;;;;;;;7.75;1.80;;;15.20;99.90;;;;;;4974627;28;20023;-76
2023/10/28 10:33:38;;;;;;;8.38;2.20;;;15.20;99.90;;;;;;4957687;28;20085;-76
2023/10/28 10:36:17;;;;;;;11.52;2.30;;;15.20;99.90;;;;;;4970978;28;20441;-76
2023/10/28 10:38:45;;;;;;;6.90;1.48;;;15.20;99.90;;;;;;4967559;28;20035;-76
2023/10/28 10:41:22;;;;;;;10.18;2.28;;;15.20;99.90;;;;;;4972547;28;20021;-76
2023/10/28 10:43:48;;;;;;;10.43;2.70;;;15.30;99.90;;;;;;4968026;28;20038;-76
2023/10/28 10:46:14;;;;;;;12.07;2.75;;;15.40;99.90;;;;;;4973312;28;20011;-76
2023/10/28 10:48:39;;;;;;;8.80;2.22;;;15.30;99.90;;;;;;4966843;28;20512;-77
2023/10/28 10:51:06;;;;;;;9.23;2.28;;;15.30;99.90;;;;;;4981612;28;20098;-76
2023/10/28 10:53:41;;;;;;;8.85;2.15;;;15.30;99.90;;;;;;4962423;28;20034;-76
2023/10/28 10:56:18;;;;;;;12.55;2.35;;;15.30;99.90;;;;;;4975720;28;20019;-76
2023/10/28 10:58:43;;;;;;;15.52;2.50;;;15.40;99.90;;;;;;4969620;28;20094;-77
2023/10/28 11:01:09;;;;;;;10.70;2.03;;;15.50;99.90;;;;;;4964088;28;20051;-76
2023/10/28 11:03:37;;;;;;;13.40;2.97;;;15.60;99.90;;;;;;4971417;28;20055;-76
2023/10/28 11:06:03;;;;;;;8.90;2.47;;;15.60;99.90;;;;;;4966568;28;20399;-76
2023/10/28 11:08:30;;;;;;;10.27;2.70;;;15.70;99.90;;;;;;4972053;28;20023;-76
2023/10/28 11:10:55;;;;;;;11.68;2.78;;;15.60;99.90;;;;;;4976200;28;20031;-76
2023/10/28 11:13:22;;;;;;;10.38;3.05;;;15.50;99.90;;;;;;4972534;28;20450;-77
2023/10/28 11:15:49;;;;;;;12.82;3.00;;;15.50;99.90;;;;;;4974397;28;20033;-76
2023/10/28 11:18:15;;;;;;;13.38;2.92;;;15.40;99.90;;;;;;4975596;28;20367;-76
2023/10/28 11:20:42;;;;;;;15.82;3.88;;;15.40;99.90;;;;;;4969084;28;20026;-76
2023/10/28 11:23:08;;;;;;;11.50;2.50;;;15.40;99.90;;;;;;4969120;28;20073;-76
2023/10/28 11:25:35;;;;;;;16.77;3.63;;;15.40;99.90;;;;;;4971528;28;20022;-76
2023/10/28 11:28:08;;;;;;;11.30;3.03;;;15.50;99.90;;;;;;4973941;28;20375;-76
2023/10/28 11:30:33;;;;;;;10.32;3.50;;;15.50;99.90;;;;;;4973258;28;20030;-76
2023/10/28 11:33:07;;;;;;;13.77;3.03;;;15.50;99.90;;;;;;4967642;28;20035;-76
2023/10/28 11:35:34;;;;;;;19.98;3.58;;;15.50;99.90;;;;;;4970994;28;20061;-76
2023/10/28 11:38:03;;;;;;;14.40;3.28;;;15.60;99.90;;;;;;4972573;28;20420;-76
2023/10/28 11:40:29;;;;;;;14.38;2.97;;;15.70;99.90;;;;;;4970859;28;20031;-76
2023/10/28 11:42:55;;;;;;;15.38;3.67;;;15.80;99.90;;;;;;4965622;28;20041;-76
2023/10/28 11:45:21;;;;;;;19.83;4.20;;;15.80;99.90;;;;;;4970552;28;20022;-76
2023/10/28 11:47:46;;;;;;;17.90;3.45;;;15.90;99.90;;;;;;4981365;28;20058;-76
2023/10/28 11:50:12;;;;;;;13.73;3.65;;;15.90;99.90;;;;;;4971972;28;20102;-76
2023/10/28 11:52:39;;;;;;;18.60;3.78;;;16.00;99.90;;;;;;4965995;28;20045;-76
2023/10/28 11:55:05;;;;;;;20.13;4.05;;;15.90;99.90;;;;;;4969991;28;20103;-76
2023/10/28 11:57:34;;;;;;;16.73;3.85;;;15.90;99.90;;;;;;4964465;28;20046;-76
2023/10/28 12:00:00;;;;;;;16.75;3.67;;;15.80;99.90;;;;;;4969263;28;20498;-76
2023/10/28 12:02:25;;;;;;;13.77;3.35;;;15.80;99.90;;;;;;4971468;28;20027;-76
2023/10/28 12:04:51;;;;;;;18.08;3.47;;;15.80;99.90;;;;;;4966178;28;20027;-76
2023/10/28 12:07:17;;;;;;;13.40;3.63;;;15.80;99.90;;;;;;4969854;28;20054;-76
2023/10/28 12:09:43;;;;;;;26.33;4.53;;;15.80;99.90;;;;;;4966395;28;20372;-76
2023/10/28 12:12:09;;;;;;;17.73;4.05;;;15.70;99.90;;;;;;4974000;28;20027;-76
2023/10/28 12:14:35;;;;;;;13.27;3.05;;;15.60;99.90;;;;;;4967882;28;20114;-76
2023/10/28 12:17:01;;;;;;;12.95;3.63;;;15.50;99.90;;;;;;4969473;28;20027;-76
2023/10/28 12:19:27;;;;;;;16.02;3.40;;;15.50;99.90;;;;;;4965344;28;20538;-76
2023/10/28 12:21:53;;;;;;;21.85;3.78;;;15.50;99.90;;;;;;4968264;28;20062;-76
2023/10/28 12:24:19;;;;;;;13.05;2.67;;;15.40;99.90;;;;;;4977924;28;20074;-76
2023/10/28 12:26:45;;;;;;;18.13;3.58;;;15.40;99.90;;;;;;4963680;28;20446;-76
2023/10/28 12:29:11;;;;;;;14.77;3.95;;;15.40;99.90;;;;;;4971076;28;20658;-76
2023/10/28 12:31:36;;;;;;;16.58;3.10;;;15.50;99.90;;;;;;4965732;28;20030;-76
2023/10/28 12:34:03;;;;;;;14.38;3.78;;;15.50;99.90;;;;;;4933117;28;20611;-76
2023/10/28 12:36:30;;;;;;;13.20;3.25;;;15.60;99.90;;;;;;4950967;28;20106;-76
2023/10/28 12:38:55;;;;;;;15.60;3.58;;;15.70;99.90;;;;;;4960980;28;20062;-76
2023/10/28 12:41:21;;;;;;;12.02;2.83;;;15.70;99.90;;;;;;4957572;28;20496;-76
2023/10/28 12:43:47;;;;;;;18.70;3.10;;;15.80;99.90;;;;;;4957426;28;20066;-76
2023/10/28 12:46:13;;;;;;;14.52;3.72;;;15.80;99.90;;;;;;4963502;28;22322;-76
2023/10/28 12:48:38;;;;;;;16.42;3.45;;;15.90;99.90;;;;;;4958173;28;20373;-76